createdAt,value
2018-10-19T00:00:44.765Z,25.57
2018-10-19T00:03:13.046Z,23.98
2018-10-19T00:05:41.217Z,23.62
2018-10-19T00:08:09.461Z,22.60
2018-10-19T00:10:37.636Z,24.47
2018-10-19T00:13:05.878Z,22.52
2018-10-19T00:15:34.057Z,24.65
2018-10-19T00:18:02.301Z,23.85
2018-10-19T00:20:30.482Z,24.23
2018-10-19T00:22:58.692Z,22.32
2018-10-19T00:25:26.883Z,22.40
2018-10-19T00:27:55.174Z,22.58
2018-10-19T00:30:23.418Z,23.95
2018-10-19T00:32:51.638Z,23.45
2018-10-19T00:35:19.790Z,23.60
2018-10-19T00:37:48.017Z,23.12
2018-10-19T00:40:16.245Z,23.33
2018-10-19T00:42:44.452Z,22.13
2018-10-19T00:45:12.758Z,23.98
2018-10-19T00:47:40.889Z,24.80
2018-10-19T00:50:09.182Z,23.95
2018-10-19T00:52:37.409Z,22.73
2018-10-19T00:55:06.280Z,21.02
2018-10-19T00:57:34.500Z,23.12
2018-10-19T01:00:02.743Z,22.48
2018-10-19T01:02:30.983Z,22.55
2018-10-19T01:04:59.154Z,23.00
2018-10-19T01:07:27.361Z,22.30
2018-10-19T01:09:55.581Z,22.35
2018-10-19T01:12:23.785Z,22.50
2018-10-19T01:14:52.007Z,22.20
2018-10-19T01:17:20.278Z,21.23
2018-10-19T01:19:48.490Z,23.25
2018-10-19T01:22:16.893Z,21.77
2018-10-19T01:24:45.103Z,22.10
2018-10-19T01:27:13.370Z,23.70
2018-10-19T01:29:41.561Z,21.48
2018-10-19T01:32:09.709Z,22.32
2018-10-19T01:34:37.940Z,22.13
2018-10-19T01:37:06.175Z,21.00
2018-10-19T01:39:34.365Z,20.48
2018-10-19T01:42:02.581Z,21.25
2018-10-19T01:44:32.097Z,22.40
2018-10-19T01:47:00.381Z,21.60
2018-10-19T01:49:28.565Z,20.48
2018-10-19T01:51:56.779Z,21.00
2018-10-19T01:54:24.989Z,20.82
2018-10-19T01:56:53.215Z,20.85
2018-10-19T01:59:21.409Z,19.85
2018-10-19T02:01:49.573Z,20.17
2018-10-19T02:04:17.777Z,21.23
2018-10-19T02:06:45.996Z,21.00
2018-10-19T02:09:14.174Z,20.80
2018-10-19T02:11:42.409Z,20.00
2018-10-19T02:14:10.613Z,24.15
2018-10-19T02:16:38.840Z,21.60
2018-10-19T02:19:07.013Z,21.55
2018-10-19T02:21:35.213Z,20.88
2018-10-19T02:24:03.502Z,22.20
2018-10-19T02:26:31.673Z,21.57
2018-10-19T02:28:59.939Z,21.70
2018-10-19T02:31:28.175Z,21.40
2018-10-19T02:33:56.385Z,21.75
2018-10-19T02:36:24.634Z,20.92
2018-10-19T02:38:52.836Z,20.30
2018-10-19T02:41:21.058Z,21.27
2018-10-19T02:43:49.226Z,21.55
2018-10-19T02:46:17.443Z,19.92
2018-10-19T02:48:45.650Z,21.65
2018-10-19T02:51:13.875Z,21.97
2018-10-19T02:53:42.105Z,23.22
2018-10-19T02:56:10.285Z,21.95
2018-10-19T02:58:38.501Z,22.52
2018-10-19T03:01:06.719Z,23.02
2018-10-19T03:03:34.901Z,21.33
2018-10-19T03:06:03.110Z,21.82
2018-10-19T03:08:31.305Z,22.10
2018-10-19T03:10:59.596Z,24.10
2018-10-19T03:13:27.789Z,23.70
2018-10-19T03:15:55.965Z,22.05
2018-10-19T03:18:24.181Z,23.57
2018-10-19T03:20:52.377Z,22.25
2018-10-19T03:23:20.603Z,19.92
2018-10-19T03:25:48.780Z,23.00
2018-10-19T03:28:16.997Z,23.12
2018-10-19T03:30:45.316Z,21.60
2018-10-19T03:33:13.501Z,22.00
2018-10-19T03:35:41.732Z,22.48
2018-10-19T03:38:09.901Z,25.35
2018-10-19T03:40:38.126Z,26.40
2018-10-19T03:43:06.353Z,26.15
2018-10-19T03:45:35.089Z,29.48
2018-10-19T03:48:03.363Z,28.73
2018-10-19T03:50:31.545Z,29.95
2018-10-19T03:52:59.804Z,30.23
2018-10-19T03:55:27.981Z,33.33
2018-10-19T03:57:56.190Z,32.85
2018-10-19T04:00:24.357Z,33.18
2018-10-19T04:02:52.601Z,34.95
2018-10-19T04:05:22.050Z,31.93
2018-10-19T04:07:50.237Z,32.13
2018-10-19T04:10:18.449Z,37.65
2018-10-19T04:12:46.649Z,28.80
2018-10-19T04:15:15.053Z,32.55
2018-10-19T04:17:43.066Z,30.05
2018-10-19T04:20:11.282Z,30.65
2018-10-19T04:22:39.462Z,32.17
2018-10-19T04:25:08.710Z,33.80
2018-10-19T04:27:36.946Z,27.58
2018-10-19T04:30:06.541Z,29.77
2018-10-19T04:32:34.770Z,29.10
2018-10-19T04:35:03.073Z,30.37
2018-10-19T04:37:31.249Z,29.70
2018-10-19T04:39:59.436Z,31.45
2018-10-19T04:42:27.811Z,28.25
2018-10-19T04:44:56.010Z,31.33
2018-10-19T04:47:24.234Z,31.80
2018-10-19T04:49:52.453Z,29.48
2018-10-19T04:52:20.637Z,28.15
2018-10-19T04:54:48.846Z,30.30
2018-10-19T04:57:17.094Z,29.90
2018-10-19T04:59:45.278Z,27.25
2018-10-19T05:02:13.490Z,27.30
2018-10-19T05:04:41.731Z,25.43
2018-10-19T05:07:09.906Z,26.40
2018-10-19T05:09:38.200Z,25.50
2018-10-19T05:12:06.409Z,26.97
2018-10-19T05:14:34.581Z,24.87
2018-10-19T05:17:02.845Z,22.82
2018-10-19T05:19:31.025Z,27.62
2018-10-19T05:21:59.206Z,23.55
2018-10-19T05:24:27.479Z,24.72
2018-10-19T05:26:55.657Z,23.80
2018-10-19T05:29:23.861Z,24.27
2018-10-19T05:31:52.110Z,25.23
2018-10-19T05:34:20.321Z,24.87
2018-10-19T05:36:48.498Z,29.20
2018-10-19T05:39:16.713Z,25.27
2018-10-19T05:41:44.941Z,29.00
2018-10-19T05:44:13.164Z,27.52
2018-10-19T05:46:41.398Z,28.92
2018-10-19T05:49:09.597Z,27.02
2018-10-19T05:51:37.804Z,27.75
2018-10-19T05:54:06.082Z,28.80
2018-10-19T05:56:34.292Z,29.37
2018-10-19T05:59:02.545Z,31.07
2018-10-19T06:01:30.733Z,29.80
2018-10-19T06:03:58.962Z,28.20
2018-10-19T06:06:27.248Z,24.63
2018-10-19T06:08:55.737Z,28.92
2018-10-19T06:11:23.958Z,28.65
2018-10-19T06:13:52.172Z,28.60
2018-10-19T06:16:20.416Z,29.90
2018-10-19T06:18:48.604Z,28.25
2018-10-19T06:21:16.891Z,28.75
2018-10-19T06:23:45.057Z,30.27
2018-10-19T06:26:13.404Z,30.80
2018-10-19T06:28:41.550Z,28.57
2018-10-19T06:31:09.783Z,26.77
2018-10-19T06:33:38.081Z,32.53
2018-10-19T06:36:06.292Z,30.02
2018-10-19T06:38:34.469Z,28.40
2018-10-19T06:41:02.754Z,27.00
2018-10-19T06:43:30.933Z,27.60
2018-10-19T06:45:59.165Z,28.87
2018-10-19T06:48:27.381Z,27.48
2018-10-19T06:50:55.568Z,26.97
2018-10-19T06:53:23.834Z,30.55
2018-10-19T06:55:52.027Z,24.77
2018-10-19T06:58:20.290Z,27.15
2018-10-19T07:00:48.461Z,27.13
2018-10-19T07:03:16.698Z,28.67
2018-10-19T07:05:45.023Z,25.17
2018-10-19T07:08:13.174Z,28.87
2018-10-19T07:10:41.510Z,27.58
2018-10-19T07:13:09.714Z,31.35
2018-10-19T07:15:38.034Z,29.55
2018-10-19T07:18:06.296Z,28.20
2018-10-19T07:20:34.489Z,31.57
2018-10-19T07:23:02.745Z,31.40
2018-10-19T07:25:30.933Z,32.30
2018-10-19T07:27:59.159Z,27.05
2018-10-19T07:30:27.418Z,28.17
2018-10-19T07:32:55.603Z,26.00
2018-10-19T07:35:23.836Z,28.32
2018-10-19T07:37:52.031Z,30.17
2018-10-19T07:40:20.288Z,29.18
2018-10-19T07:42:48.480Z,26.80
2018-10-19T07:45:16.807Z,26.20
2018-10-19T07:47:45.129Z,28.62
2018-10-19T07:50:13.354Z,26.62
2018-10-19T07:52:41.676Z,28.75
2018-10-19T07:55:11.007Z,31.20
2018-10-19T07:57:39.297Z,29.40
2018-10-19T08:00:09.082Z,31.15
2018-10-19T08:02:37.254Z,30.45
2018-10-19T08:05:06.505Z,33.95
2018-10-19T08:07:34.736Z,34.48
2018-10-19T08:10:03.044Z,34.85
2018-10-19T08:12:31.282Z,36.13
2018-10-19T08:14:59.526Z,37.53
2018-10-19T08:17:27.789Z,38.35
2018-10-19T08:19:56.037Z,41.18
2018-10-19T08:22:24.393Z,43.28
2018-10-19T08:24:53.411Z,44.60
2018-10-19T08:27:21.711Z,47.20
2018-10-19T08:29:50.054Z,47.90
2018-10-19T08:32:18.359Z,41.00
2018-10-19T08:34:46.729Z,47.75
2018-10-19T08:37:15.820Z,48.48
2018-10-19T08:39:44.090Z,47.93
2018-10-19T08:42:12.415Z,49.55
2018-10-19T08:44:40.610Z,50.55
2018-10-19T08:47:08.951Z,55.65
2018-10-19T08:49:37.105Z,53.13
2018-10-19T08:52:05.382Z,54.43
2018-10-19T08:54:34.663Z,55.35
2018-10-19T08:57:04.029Z,50.13
2018-10-19T08:59:32.888Z,52.87
2018-10-19T09:02:01.210Z,53.60
2018-10-19T09:04:29.501Z,56.17
2018-10-19T09:06:57.929Z,55.97
2018-10-19T09:09:26.164Z,51.13
2018-10-19T09:11:54.432Z,53.70
2018-10-19T09:14:33.984Z,54.57
2018-10-19T09:17:02.787Z,53.33
2018-10-19T09:19:30.962Z,55.70
2018-10-19T09:21:59.632Z,54.83
2018-10-19T09:24:27.895Z,56.30
2018-10-19T09:26:56.253Z,52.50
2018-10-19T09:29:24.620Z,55.63
2018-10-19T09:31:52.849Z,48.93
2018-10-19T09:34:21.105Z,50.70
2018-10-19T09:36:49.447Z,55.17
2018-10-19T09:39:17.702Z,55.70
2018-10-19T09:41:45.875Z,50.17
2018-10-19T09:44:14.093Z,48.60
2018-10-19T09:46:42.346Z,51.93
2018-10-19T09:49:11.884Z,53.03
2018-10-19T09:51:40.821Z,53.00
2018-10-19T09:54:10.131Z,50.90
2018-10-19T09:56:39.500Z,54.63
2018-10-19T09:59:07.844Z,47.97
2018-10-19T10:01:36.612Z,53.43
2018-10-19T10:04:05.117Z,52.30
2018-10-19T10:06:33.354Z,50.70
2018-10-19T10:09:01.617Z,50.27
2018-10-19T10:11:29.941Z,50.13
2018-10-19T10:13:58.140Z,52.77
2018-10-19T10:16:26.463Z,50.30
2018-10-19T10:18:54.691Z,52.90
2018-10-19T10:21:22.998Z,50.00
2018-10-19T10:23:51.261Z,52.47
2018-10-19T10:26:19.516Z,54.97
2018-10-19T10:28:47.733Z,56.27
2018-10-19T10:31:16.014Z,54.90
2018-10-19T10:33:44.221Z,54.40
2018-10-19T10:36:12.453Z,57.33
2018-10-19T10:38:40.672Z,58.93
2018-10-19T10:41:08.930Z,57.07
2018-10-19T10:43:37.171Z,58.53
2018-10-19T10:46:05.736Z,57.40
2018-10-19T10:48:33.905Z,60.03
2018-10-19T10:51:02.237Z,60.57
2018-10-19T10:53:30.420Z,61.97
2018-10-19T10:55:58.626Z,59.50
2018-10-19T10:58:27.227Z,66.50
2018-10-19T11:00:55.877Z,64.93
2018-10-19T11:03:24.580Z,64.67
2018-10-19T11:05:53.206Z,63.87
2018-10-19T11:08:21.913Z,58.83
2018-10-19T11:10:50.576Z,61.37
2018-10-19T11:13:19.203Z,60.20
2018-10-19T11:15:47.949Z,61.07
2018-10-19T11:18:16.570Z,59.70
2018-10-19T11:20:45.401Z,59.97
2018-10-19T11:23:14.039Z,60.57
2018-10-19T11:25:42.753Z,63.57
2018-10-19T11:28:11.021Z,62.47
2018-10-19T11:30:39.606Z,61.37
2018-10-19T11:33:08.306Z,61.07
2018-10-19T11:35:37.086Z,62.53
2018-10-19T11:38:05.602Z,60.03
2018-10-19T11:40:35.781Z,62.77
2018-10-19T11:43:05.265Z,61.77
2018-10-19T11:45:34.593Z,61.60
2018-10-19T11:48:03.932Z,63.10
2018-10-19T11:50:32.637Z,64.27
2018-10-19T11:53:01.873Z,60.80
2018-10-19T11:55:30.129Z,61.33
2018-10-19T11:57:58.369Z,54.70
2018-10-19T12:00:26.626Z,54.87
2018-10-19T12:02:54.842Z,58.83
2018-10-19T12:05:23.094Z,63.30
2018-10-19T12:07:51.320Z,62.50
2018-10-19T12:10:19.567Z,56.00
2018-10-19T12:12:47.837Z,61.60
2018-10-19T12:15:16.984Z,61.97
2018-10-19T12:17:45.578Z,64.20
2018-10-19T12:20:15.060Z,63.60
2018-10-19T12:22:43.294Z,60.77
2018-10-19T12:25:12.538Z,62.47
2018-10-19T12:27:41.141Z,59.30
2018-10-19T12:30:10.170Z,67.63
2018-10-19T12:32:38.497Z,63.43
2018-10-19T12:35:08.271Z,62.87
2018-10-19T12:37:36.550Z,62.77
2018-10-19T12:40:05.600Z,64.30
2018-10-19T12:42:33.884Z,64.73
2018-10-19T12:45:02.567Z,63.87
2018-10-19T12:47:37.126Z,63.03
2018-10-19T12:50:05.622Z,65.97
2018-10-19T12:52:33.870Z,65.70
2018-10-19T12:55:02.204Z,61.53
2018-10-19T12:57:30.405Z,62.47
2018-10-19T12:59:59.293Z,62.40
2018-10-19T13:02:27.653Z,61.80
2018-10-19T13:04:55.853Z,60.03
2018-10-19T13:07:24.377Z,60.50
2018-10-19T13:09:53.149Z,62.10
2018-10-19T13:12:21.382Z,56.07
2018-10-19T13:14:49.677Z,59.53
2018-10-19T13:17:17.862Z,52.70
2018-10-19T13:19:46.117Z,54.07
2018-10-19T13:22:14.302Z,52.70
2018-10-19T13:24:43.206Z,50.53
2018-10-19T13:27:11.492Z,51.10
2018-10-19T13:29:40.813Z,50.40
2018-10-19T13:32:09.085Z,48.87
2018-10-19T13:34:38.932Z,47.93
2018-10-19T13:37:07.207Z,52.47
2018-10-19T13:39:35.418Z,49.83
2018-10-19T13:42:03.683Z,48.90
2018-10-19T13:44:31.908Z,50.50
2018-10-19T13:47:00.940Z,46.63
2018-10-19T13:49:29.171Z,50.00
2018-10-19T13:51:57.412Z,47.30
2018-10-19T13:54:25.646Z,47.40
2018-10-19T13:56:54.455Z,47.70
2018-10-19T13:59:23.142Z,48.77
2018-10-19T14:01:52.337Z,50.43
2018-10-19T14:04:20.520Z,49.57
2018-10-19T14:06:48.758Z,46.70
2018-10-19T14:09:16.966Z,43.40
2018-10-19T14:11:45.233Z,47.50
2018-10-19T14:14:13.462Z,46.40
2018-10-19T14:16:41.645Z,49.30
2018-10-19T14:19:09.918Z,49.30
2018-10-19T14:21:38.085Z,49.53
2018-10-19T14:24:06.329Z,47.27
2018-10-19T14:26:34.660Z,47.30
2018-10-19T14:29:02.895Z,48.53
2018-10-19T14:31:31.163Z,47.97
2018-10-19T14:33:59.363Z,53.20
2018-10-19T14:36:27.703Z,52.30
2018-10-19T14:38:55.943Z,53.93
2018-10-19T14:41:24.141Z,55.00
2018-10-19T14:43:52.318Z,57.67
2018-10-19T14:46:20.533Z,57.37
2018-10-19T14:48:49.734Z,49.50
2018-10-19T14:51:17.987Z,51.60
2018-10-19T14:53:46.224Z,48.80
2018-10-19T14:56:14.450Z,49.83
2018-10-19T14:58:43.475Z,48.60
2018-10-19T15:01:11.743Z,43.30
2018-10-19T15:03:39.962Z,51.07
2018-10-19T15:06:08.529Z,48.33
2018-10-19T15:08:36.761Z,46.80
2018-10-19T15:11:05.396Z,47.10
2018-10-19T15:13:33.526Z,45.33
2018-10-19T15:16:01.728Z,45.40
2018-10-19T15:18:29.989Z,52.17
2018-10-19T15:20:58.198Z,50.10
2018-10-19T15:23:26.392Z,51.10
2018-10-19T15:25:54.665Z,47.60
2018-10-19T15:28:22.951Z,51.47
2018-10-19T15:30:51.142Z,50.87
2018-10-19T15:33:19.446Z,49.90
2018-10-19T15:35:47.636Z,46.50
2018-10-19T15:38:15.945Z,49.07
2018-10-19T15:40:44.157Z,51.87
2018-10-19T15:43:12.357Z,48.43
2018-10-19T15:45:40.578Z,50.23
2018-10-19T15:48:08.862Z,49.23
2018-10-19T15:50:37.078Z,52.80
2018-10-19T15:53:05.501Z,40.80
2018-10-19T15:55:34.169Z,50.10
2018-10-19T15:58:02.400Z,49.97
2018-10-19T16:00:30.733Z,51.90
2018-10-19T16:02:58.923Z,51.53
2018-10-19T16:05:27.150Z,48.83
2018-10-19T16:07:55.336Z,44.50
2018-10-19T16:10:23.635Z,60.17
2018-10-19T16:12:51.820Z,55.70
2018-10-19T16:15:20.010Z,58.83
2018-10-19T16:17:48.225Z,56.20
2018-10-19T16:20:16.469Z,53.80
2018-10-19T16:22:44.652Z,52.03
2018-10-19T16:25:12.879Z,50.20
2018-10-19T16:27:41.150Z,50.50
2018-10-19T16:30:10.894Z,49.30
2018-10-19T16:32:39.830Z,50.30
2018-10-19T16:35:08.690Z,49.53
2018-10-19T16:37:37.458Z,52.90
2018-10-19T16:40:06.020Z,49.60
2018-10-19T16:42:34.209Z,51.67
2018-10-19T16:45:02.480Z,50.27
2018-10-19T16:47:31.053Z,50.97
2018-10-19T16:49:59.257Z,52.23
2018-10-19T16:52:27.585Z,48.47
2018-10-19T16:54:55.686Z,52.93
2018-10-19T16:57:23.890Z,52.47
2018-10-19T16:59:52.087Z,52.50
2018-10-19T17:02:20.711Z,51.20
2018-10-19T17:04:49.136Z,46.80
2018-10-19T17:07:17.343Z,54.87
2018-10-19T17:09:45.602Z,55.70
2018-10-19T17:12:16.767Z,53.90
2018-10-19T17:14:44.926Z,49.17
2018-10-19T17:17:13.103Z,51.90
2018-10-19T17:19:41.315Z,50.80
2018-10-19T17:22:09.493Z,52.73
2018-10-19T17:24:37.718Z,49.47
2018-10-19T17:27:06.161Z,53.67
2018-10-19T17:29:34.329Z,54.07
2018-10-19T17:32:02.602Z,54.20
2018-10-19T17:34:30.809Z,51.20
2018-10-19T17:36:59.058Z,54.27
2018-10-19T17:39:27.262Z,53.70
2018-10-19T17:41:55.478Z,53.97
2018-10-19T17:44:23.762Z,53.30
2018-10-19T17:46:51.920Z,57.40
2018-10-19T17:49:20.133Z,57.60
2018-10-19T17:51:48.361Z,55.87
2018-10-19T17:54:16.680Z,55.10
2018-10-19T17:56:44.865Z,56.37
2018-10-19T17:59:13.133Z,59.40
2018-10-19T18:01:41.377Z,58.53
2018-10-19T18:04:09.585Z,61.77
2018-10-19T18:06:37.810Z,54.33
2018-10-19T18:09:10.380Z,55.53
2018-10-19T18:11:38.861Z,56.67
2018-10-19T18:14:07.228Z,53.90
2018-10-19T18:16:35.694Z,59.70
2018-10-19T18:19:03.918Z,54.83
2018-10-19T18:21:32.163Z,55.37
2018-10-19T18:24:00.345Z,57.00
2018-10-19T18:26:28.937Z,49.27
2018-10-19T18:28:57.765Z,46.10
2018-10-19T18:31:27.215Z,55.20
2018-10-19T18:33:55.720Z,53.07
2018-10-19T18:36:24.737Z,52.77
2018-10-19T18:38:53.111Z,53.70
2018-10-19T18:41:22.238Z,51.57
2018-10-19T18:43:50.773Z,53.17
2018-10-19T18:46:19.000Z,51.37
2018-10-19T18:48:47.266Z,51.43
2018-10-19T18:51:16.797Z,52.10
2018-10-19T18:53:45.505Z,51.30
2018-10-19T18:56:13.781Z,53.37
2018-10-19T18:58:41.976Z,54.80
2018-10-19T19:01:12.117Z,53.07
2018-10-19T19:03:40.344Z,52.60
2018-10-19T19:06:09.316Z,51.90
2018-10-19T19:08:37.561Z,53.30
2018-10-19T19:11:05.803Z,54.93
2018-10-19T19:13:39.413Z,50.10
2018-10-19T19:16:15.165Z,49.43
2018-10-19T19:18:43.405Z,52.93
2018-10-19T19:21:11.633Z,47.83
2018-10-19T19:23:45.785Z,53.13
2018-10-19T19:26:15.109Z,53.97
2018-10-19T19:28:44.041Z,55.03
2018-10-19T19:31:12.718Z,51.23
2018-10-19T19:33:46.481Z,52.80
2018-10-19T19:36:14.806Z,51.30
2018-10-19T19:38:43.193Z,55.50
2018-10-19T19:41:17.086Z,53.83
2018-10-19T19:43:45.209Z,50.97
2018-10-19T19:46:14.030Z,52.57
2018-10-19T19:48:47.781Z,48.63
2018-10-19T19:51:16.007Z,51.43
2018-10-19T19:53:44.206Z,51.47
2018-10-19T19:56:12.825Z,48.27
2018-10-19T19:58:41.057Z,49.10
2018-10-19T20:01:09.958Z,45.63
2018-10-19T20:03:38.481Z,48.70
2018-10-19T20:06:07.251Z,48.33
2018-10-19T20:08:35.477Z,50.50
2018-10-19T20:11:03.795Z,49.50
2018-10-19T20:13:31.925Z,49.80
2018-10-19T20:16:00.141Z,46.90
2018-10-19T20:18:28.334Z,47.30
2018-10-19T20:20:56.533Z,49.67
2018-10-19T20:23:24.735Z,51.00
2018-10-19T20:25:52.975Z,49.50
2018-10-19T20:28:21.195Z,46.20
2018-10-19T20:30:49.370Z,45.90
2018-10-19T20:33:17.596Z,46.33
2018-10-19T20:35:45.897Z,47.45
2018-10-19T20:38:14.214Z,44.18
2018-10-19T20:40:42.460Z,46.45
2018-10-19T20:43:10.690Z,46.13
2018-10-19T20:45:38.871Z,47.60
2018-10-19T20:48:07.109Z,44.67
2018-10-19T20:50:35.305Z,45.17
2018-10-19T20:53:03.593Z,44.43
2018-10-19T20:55:31.867Z,42.50
2018-10-19T20:58:00.037Z,46.60
2018-10-19T21:00:28.265Z,48.75
2018-10-19T21:02:56.453Z,40.87
2018-10-19T21:05:27.489Z,42.80
2018-10-19T21:07:55.701Z,44.30
2018-10-19T21:10:23.976Z,44.60
2018-10-19T21:12:52.145Z,42.05
2018-10-19T21:15:20.333Z,39.90
2018-10-19T21:17:48.546Z,40.77
2018-10-19T21:20:16.877Z,44.08
2018-10-19T21:22:44.993Z,46.83
2018-10-19T21:25:13.200Z,44.93
2018-10-19T21:27:41.385Z,46.55
2018-10-19T21:30:11.119Z,46.83
2018-10-19T21:32:39.330Z,45.20
2018-10-19T21:35:07.651Z,45.60
2018-10-19T21:37:35.845Z,41.60
2018-10-19T21:40:04.102Z,44.40
2018-10-19T21:42:32.389Z,45.95
2018-10-19T21:45:00.616Z,43.20
2018-10-19T21:47:29.036Z,42.98
2018-10-19T21:49:57.633Z,41.92
2018-10-19T21:52:25.853Z,45.23
2018-10-19T21:54:54.065Z,44.10
2018-10-19T21:57:22.305Z,45.33
2018-10-19T21:59:50.500Z,48.10
2018-10-19T22:02:18.730Z,45.67
2018-10-19T22:04:46.921Z,45.65
2018-10-19T22:07:15.163Z,44.67
2018-10-19T22:09:43.404Z,48.35
2018-10-19T22:12:11.601Z,50.23
2018-10-19T22:14:39.820Z,48.83
2018-10-19T22:17:08.064Z,47.35
2018-10-19T22:19:36.289Z,47.30
2018-10-19T22:22:04.561Z,44.53
2018-10-19T22:24:32.778Z,45.88
2018-10-19T22:27:00.978Z,45.03
2018-10-19T22:29:35.870Z,45.38
2018-10-19T22:32:04.098Z,41.35
2018-10-19T22:34:32.321Z,42.67
2018-10-19T22:37:00.514Z,40.78
2018-10-19T22:39:28.776Z,40.50
2018-10-19T22:41:57.017Z,41.55
2018-10-19T22:44:25.198Z,41.10
2018-10-19T22:46:53.441Z,40.67
2018-10-19T22:49:21.617Z,44.85
2018-10-19T22:51:49.848Z,40.55
2018-10-19T22:54:18.094Z,40.60
2018-10-19T22:56:46.470Z,36.25
2018-10-19T22:59:14.752Z,39.90
2018-10-19T23:01:42.941Z,40.63
2018-10-19T23:04:11.155Z,39.80
2018-10-19T23:06:39.346Z,40.23
2018-10-19T23:09:08.585Z,40.08
2018-10-19T23:11:36.774Z,39.48
2018-10-19T23:14:05.093Z,39.25
2018-10-19T23:16:33.554Z,37.33
2018-10-19T23:19:01.762Z,41.95
2018-10-19T23:21:30.068Z,39.27
2018-10-19T23:23:58.240Z,40.43
2018-10-19T23:26:26.471Z,39.00
2018-10-19T23:28:54.749Z,39.67
2018-10-19T23:31:23.078Z,37.85
2018-10-19T23:33:51.246Z,39.30
2018-10-19T23:36:19.479Z,39.92
2018-10-19T23:38:47.706Z,39.90
2018-10-19T23:41:15.974Z,37.95
2018-10-19T23:43:44.184Z,40.10
2018-10-19T23:46:12.474Z,40.12
2018-10-19T23:48:40.665Z,39.85
2018-10-19T23:51:08.896Z,38.17
2018-10-19T23:53:37.212Z,37.67
2018-10-19T23:56:05.577Z,36.23
2018-10-19T23:58:33.822Z,37.90
